Monday, May 30, 2016
08:45 UTC
  |  Log In   |  Register Free
Airport Search:

Clinton-Sampson County Airport
(KCTZ)

Clinton-Sampson County Airport Diagram
No Airport Diagram Available

FAA data valid effective Mar 31 2016 - May 26 2016 (unless otherwise noted).

 
 
 
 
 
 
 
 
 
 
 
 
 
 
Current Aviation Weather for KCTZ

Weather Summary


The most recent METAR observation for CTZ was updated at: 12:55 UTC
METAR for KCTZ is not available. Closest METAR is for KDPL
KCTZ  (most recent observation was updatred at 30:08 UTC)
300830Z AUTO 00000KT 7SM SCT002 BKN042 BKN060 22/22 A2997 RMK AO2 T02200220

KDPL  (18.9 nm SW)   (most recent observation was updated at 30:08 UTC)
300840Z AUTO 00000KT 3SM RA BKN002 BKN016 OVC024 22/21 A2998 RMK AO2 P0003 T02160212

KEYF  (24.8 nm NE)   (most recent observation was updated at 30:08 UTC)
300850Z AUTO 00000KT 5SM BR SCT001 SCT021 BKN047 22/22 A2995 RMK AO2 T02150215

TAF for KCTZ is not available.
KFAY  (25.3 nm SE)   (most recent observation was updatred at 30:05 UTC)
300537Z 3006/3106 02008KT P6SM OVC002 FM300900 01004KT 5SM BR BKN004 OVC012 FM301300 02005KT P6SM VCSH BKN008 OVC012 FM301700 03005KT 6SM -SHRA BR BKN025 BKN080 FM310100 VRB04KT 5SM BR BKN015 OVC035


KGSB  (29.6 nm SW)   (most recent observation was updatred at 30:04 UTC)
300400Z 3004/3110 VRB06KT 9999 FEW004 QNH2995INS BECMG 3015/3016 15010G15KT 9000 -SHRA FEW018 QNH2988INS TEMPO 3018/3024 16012G18KT 9000 -TSRA OVC020CB BECMG 3100/3101 VRB06KT 9000 -SHRA SCT010 QNH2988INS BECMG 3103/3104 VRB06KT 9000 -SHRA SCT010 QNH2980INS TX28/3018Z TN21/3009Z


KFBG  (29.6 nm SE)   (most recent observation was updatred at 30:04 UTC)
AMD 300400Z 3004/3107 35009KT 8000 -RA BKN004 QNH2995INS BECMG 3005/3006 36009KT 4800 -RA BR BKN003 QNH2993INS BECMG 3013/3014 36009KT 8000 -RA BKN020 QNH2987INS TEMPO 3018/3024 02012G18KT 6000 -TSRA OVC020CB BECMG 3100/3101 04006KT 9999 NSW FEW005 BKN015 QNH2994INS TX29/3020Z TN20/3011Z AMD 300400
GlobalAir.com is loading additional information.
 Current Weather at CTZ
71.0 F° (21.7 C°)

North winds at 0.0 mph
Pressure:
29.98 in
Humidity:
100%
Wind:
North at 0.0 mph
Dew Point:
71.1 F° (21.7 C°)
Visibility:
10.00 mi
CTZ NOAA Radar




Find All Airport Services Find A Hotel Find A Rental Car Find A Golf Course Find A Restaurant $100 Hamburger



Airport Weather Forecast for KCTZ

Translated METAR for KCTZ (0830 UTC)
METAR:
KCTZ 300830Z AUTO 00000KT 7SM SCT002 BKN042 BKN060 22/22 A2997 RMK AO2 T02200220
Conditions at:
KCTZ (Clinton-Sampson County, NC) observed 0830 UTC 30 May 2016
Temperature:
22°C (71.6°F)
Dewpoint:
22°C (71.6°F) [RH = 100]
Pressure:
29.97 inches Hg (1014.9 mb)
Winds:
from the N (000 degrees) at 0 mph (0 knots: 0 m/s)
Visibility:
7 mile(s)
Ceiling:
4,200 feet AGL
Clouds:
Scattered Clouds at 200 feet AGL
Broken Cloud Cover at 4,200 feet AGL
Broken Cloud Cover at 6,000 feet AGL
Remarks:
site is un-manned
site is automated and HAS a precipitation sensor

Translated TAF for KFAY (Fayetteville Rgnl/Grannis Field, NC) (0537 UTC)
TAF text:
KFAY 300537Z 3006/3106 02008KT P6SM OVC002
Forecast period:
Monday May 30 2016 06:00 UTC - Tuesday May 31 2016 06:00 UTC
Forecast type:
FROM: standard forecast or significant change
Winds:
from the NNE (020 degrees) at 9.2 mph (8 knots: 4.1 m/s)
Visibility:
6 or more mile(s) (9.7+ km)
Ceiling:
200 feet AGL
Clouds:
Overcast Skies at 200 feet AGL
Weather:
no significant weather observed at this time
TAF text:
FM300900 01004KT 5SM BR BKN004 OVC012
Forecast period:
Monday May 30 2016 09:00 UTC - Monday May 30 2016 13:00 UTC
Forecast type:
FROM: standard forecast or significant change
Winds:
from the N (010 degrees) at 4.6 mph (4 knots: 2.1 m/s)
Visibility:
5 mile(s) (8 km)
Ceiling:
400 feet AGL
Clouds:
Broken Cloud Cover at 400 feet AGL
Overcast Skies at 1,200 feet AGL
Weather:
Moderate Mist
TAF text:
FM301300 02005KT P6SM VCSH BKN008 OVC012
Forecast period:
Monday May 30 2016 13:00 UTC - Monday May 30 2016 17:00 UTC
Forecast type:
FROM: standard forecast or significant change
Winds:
from the NNE (020 degrees) at 5.8 mph (5 knots: 2.6 m/s)
Visibility:
6 or more mile(s) (9.7+ km)
Ceiling:
800 feet AGL
Clouds:
Broken Cloud Cover at 800 feet AGL
Overcast Skies at 1,200 feet AGL
Weather:
Moderate In Vicinity Shower(s)
TAF text:
FM301700 03005KT 6SM -SHRA BR BKN025 BKN080
Forecast period:
Monday May 30 2016 17:00 UTC - Tuesday May 31 2016 01:00 UTC
Forecast type:
FROM: standard forecast or significant change
Winds:
from the NNE (030 degrees) at 5.8 mph (5 knots: 2.6 m/s)
Visibility:
6 mile(s) (9.7 km)
Ceiling:
2,500 feet AGL
Clouds:
Broken Cloud Cover at 2,500 feet AGL
Broken Cloud Cover at 8,000 feet AGL
Weather:
Light Shower(s) Rain
TAF text:
FM310100 VRB04KT 5SM BR BKN015 OVC035
Forecast period:
Tuesday May 31 2016 01:00 UTC - Tuesday May 31 2016 06:00 UTC
Forecast type:
FROM: standard forecast or significant change
Winds:
variable wind direction at 4.6 mph (4 knots: 2.1 m/s)
Visibility:
5 mile(s) (8 km)
Ceiling:
1,500 feet AGL
Clouds:
Broken Cloud Cover at 1,500 feet AGL
Overcast Skies at 3,500 feet AGL
Weather:
Moderate Mist
FBO's on the Field
FBO Company Facility Photos Services Transportation Aviation Fuel Prices: Prices include tax
Catering Weather Repair Courtesy Rental Type 100LL JetA JetA+ MOGAS 8087
 
Clinton Flying Service

This FBO has not yet been rated
FS:Shell
Last Updated: May-04
Login to update fuel prices
SS:
Contact Clinton Flying ServiceMore FBO Information
 
Add another FBO Facility Photos Catering Weather Repair Courtesy Rental Type 100LL JetA JetA+ MOGAS 8087
Services Transportation Aviation Fuel Prices: Prices include tax


model-print
model-print
model-print
model-print